Braytown, Indiana
Current Conditions -  °F | °C
As of 6:52 PM on Saturday 22 Nov 2014 (Local Time) from KCVG Reporting Station
Broken Clouds Broken Clouds  
Wind Chill: 54°   Ceiling: 9000
Heat Index: 54°   Visibility: 10mi
Dew Point: 33°   Wind: 8mph
Humidity: 45%   Direction: 200°SSW
Pressure: 30.09"   Gusts: NA
Location:  38.7865°N, 85.1073°W
Report Text: KCVG 222352Z 20007KT 10SM SCT065 BKN090 12/01 A3009 RMK AO2 SLP188 60000 T01220006 10156 20122 56010
Loading
Personal Weather Stations






























Interactive Weather Map New forecast layout! Learn more

10-Day Weather Forecast

Advertisements
Track Severe Weather on mobile